createdAt,value
2018-05-12T00:00:31.164Z,530.50
2018-05-12T00:01:31.111Z,804.90
2018-05-12T00:02:31.157Z,430.20
2018-05-12T00:03:31.210Z,630.80
2018-05-12T00:04:31.256Z,461.10
2018-05-12T00:05:31.295Z,504.20
2018-05-12T00:06:31.444Z,519.10
2018-05-12T00:07:31.381Z,488.30
2018-05-12T00:08:31.447Z,498.70
2018-05-12T00:09:31.494Z,534.90
2018-05-12T00:10:31.541Z,699.20
2018-05-12T00:11:31.668Z,530.90
2018-05-12T00:12:31.742Z,513.40
2018-05-12T00:13:31.675Z,585.20
2018-05-12T00:14:31.710Z,444.60
2018-05-12T00:15:31.769Z,449.40
2018-05-12T00:16:31.817Z,592.80
2018-05-12T00:17:31.965Z,419.30
2018-05-12T00:18:31.900Z,504.40
2018-05-12T00:19:31.948Z,549.60
2018-05-12T00:20:31.996Z,474.00
2018-05-12T00:21:32.046Z,449.50
2018-05-12T00:22:32.202Z,463.80
2018-05-12T00:23:32.262Z,462.30
2018-05-12T00:24:32.202Z,516.30
2018-05-12T00:25:32.235Z,586.20
2018-05-12T00:26:32.280Z,728.20
2018-05-12T00:27:32.428Z,604.90
2018-05-12T00:28:32.480Z,426.60
2018-05-12T00:29:32.531Z,438.80
2018-05-12T00:30:32.465Z,486.90
2018-05-12T00:31:32.518Z,535.90
2018-05-12T00:32:32.572Z,560.40
2018-05-12T00:33:32.616Z,605.50
2018-05-12T00:34:32.767Z,436.10
2018-05-12T00:35:32.811Z,484.00
2018-05-12T00:36:32.748Z,464.80
2018-05-12T00:37:32.803Z,491.10
2018-05-12T00:38:32.851Z,705.60
2018-05-12T00:39:32.899Z,577.90
2018-05-12T00:40:32.956Z,558.00
2018-05-12T00:41:33.083Z,462.80
2018-05-12T00:42:33.032Z,612.90
2018-05-12T00:43:33.104Z,492.20
2018-05-12T00:44:33.128Z,484.90
2018-05-12T00:45:33.195Z,443.10
2018-05-12T00:46:33.339Z,455.10
2018-05-12T00:47:33.380Z,468.80
2018-05-12T00:48:33.328Z,555.70
2018-05-12T00:49:33.367Z,553.20
2018-05-12T00:50:33.408Z,495.00
2018-05-12T00:51:33.466Z,527.30
2018-05-12T00:52:33.602Z,537.20
2018-05-12T00:53:33.561Z,456.50
2018-05-12T00:54:33.596Z,465.10
2018-05-12T00:55:33.644Z,516.20
2018-05-12T00:56:33.699Z,525.20
2018-05-12T00:57:33.851Z,557.50
2018-05-12T00:58:33.803Z,479.20
2018-05-12T00:59:33.840Z,600.00
2018-05-12T01:00:33.904Z,693.90
2018-05-12T01:01:33.925Z,475.80
2018-05-12T01:02:34.073Z,543.70
2018-05-12T01:03:34.125Z,494.50
2018-05-12T01:04:34.081Z,487.40
2018-05-12T01:05:34.131Z,599.20
2018-05-12T01:06:34.161Z,494.90
2018-05-12T01:07:34.216Z,503.70
2018-05-12T01:08:34.275Z,485.60
2018-05-12T01:09:34.310Z,499.70
2018-05-12T01:10:34.360Z,544.90
2018-05-12T01:11:34.414Z,444.30
2018-05-12T01:12:34.461Z,448.20
2018-05-12T01:13:34.646Z,591.20
2018-05-12T01:14:34.548Z,508.30
2018-05-12T01:15:34.605Z,505.30
2018-05-12T01:16:34.645Z,529.30
2018-05-12T01:17:34.698Z,527.10
2018-05-12T01:18:34.824Z,458.00
2018-05-12T01:19:34.889Z,532.20
2018-05-12T01:20:34.818Z,860.00
2018-05-12T01:21:34.873Z,498.90
2018-05-12T01:22:34.921Z,558.30
2018-05-12T01:23:34.970Z,759.90
2018-05-12T01:24:35.105Z,443.90
2018-05-12T01:25:35.169Z,411.90
2018-05-12T01:26:35.104Z,450.70
2018-05-12T01:27:35.143Z,453.50
2018-05-12T01:28:35.205Z,513.20
2018-05-12T01:29:35.263Z,559.10
2018-05-12T01:30:35.391Z,518.10
2018-05-12T01:31:35.341Z,492.20
2018-05-12T01:32:35.377Z,406.60
2018-05-12T01:33:35.426Z,448.10
2018-05-12T01:34:35.471Z,643.50
2018-05-12T01:35:35.639Z,417.30
2018-05-12T01:36:35.565Z,472.00
2018-05-12T01:37:35.623Z,499.90
2018-05-12T01:38:35.658Z,612.50
2018-05-12T01:39:35.713Z,520.10
2018-05-12T01:40:35.852Z,432.50
2018-05-12T01:41:35.928Z,437.30
2018-05-12T01:42:35.852Z,538.20
2018-05-12T01:43:35.903Z,465.10
2018-05-12T01:44:35.956Z,450.00
2018-05-12T01:45:36.003Z,457.30
2018-05-12T01:46:36.149Z,412.90
2018-05-12T01:47:36.086Z,496.20
2018-05-12T01:48:36.130Z,454.60
2018-05-12T01:49:36.187Z,456.00
2018-05-12T01:50:36.234Z,513.60
2018-05-12T01:51:36.376Z,511.00
2018-05-12T01:52:36.428Z,463.30
2018-05-12T01:53:36.422Z,689.60
2018-05-12T01:54:36.420Z,664.50
2018-05-12T01:55:36.459Z,468.70
2018-05-12T01:56:36.516Z,384.70
2018-05-12T01:57:36.559Z,549.40
2018-05-12T01:58:36.608Z,673.90
2018-05-12T01:59:36.641Z,359.70
2018-05-12T02:00:36.701Z,496.60
2018-05-12T02:01:36.747Z,784.40
2018-05-12T02:02:36.891Z,758.00
2018-05-12T02:03:36.938Z,586.70
2018-05-12T02:04:36.865Z,413.80
2018-05-12T02:05:36.925Z,593.80
2018-05-12T02:06:36.966Z,615.10
2018-05-12T02:07:37.012Z,445.00
2018-05-12T02:08:37.170Z,489.10
2018-05-12T02:09:37.209Z,446.30
2018-05-12T02:10:37.143Z,356.80
2018-05-12T02:11:37.201Z,661.00
2018-05-12T02:12:37.235Z,603.40
2018-05-12T02:13:37.293Z,526.00
2018-05-12T02:14:37.428Z,608.80
2018-05-12T02:15:37.482Z,387.50
2018-05-12T02:16:37.421Z,558.90
2018-05-12T02:17:37.465Z,498.30
2018-05-12T02:18:37.525Z,657.60
2018-05-12T02:19:37.559Z,536.50
2018-05-12T02:20:37.718Z,535.40
2018-05-12T02:21:37.763Z,690.10
2018-05-12T02:22:37.711Z,538.90
2018-05-12T02:23:37.761Z,787.70
2018-05-12T02:24:37.810Z,404.30
2018-05-12T02:25:37.844Z,589.70
2018-05-12T02:26:37.989Z,541.20
2018-05-12T02:27:38.047Z,827.30
2018-05-12T02:28:37.986Z,616.60
2018-05-12T02:29:38.033Z,741.90
2018-05-12T02:30:38.086Z,634.70
2018-05-12T02:31:38.113Z,521.10
2018-05-12T02:32:38.267Z,348.10
2018-05-12T02:33:38.226Z,598.20
2018-05-12T02:34:38.265Z,517.30
2018-05-12T02:35:38.311Z,376.70
2018-05-12T02:36:38.347Z,825.30
2018-05-12T02:37:38.501Z,345.40
2018-05-12T02:38:38.436Z,457.20
2018-05-12T02:39:38.492Z,438.80
2018-05-12T02:40:38.538Z,359.10
2018-05-12T02:41:38.574Z,847.30
2018-05-12T02:42:38.741Z,419.50
2018-05-12T02:43:38.687Z,380.20
2018-05-12T02:44:38.721Z,441.00
2018-05-12T02:45:38.771Z,577.70
2018-05-12T02:46:38.806Z,427.20
2018-05-12T02:47:38.972Z,369.50
2018-05-12T02:48:39.019Z,452.40
2018-05-12T02:49:38.951Z,473.40
2018-05-12T02:50:39.011Z,595.50
2018-05-12T02:51:39.037Z,537.60
2018-05-12T02:52:39.099Z,430.70
2018-05-12T02:53:39.229Z,642.60
2018-05-12T02:54:39.296Z,460.70
2018-05-12T02:55:39.234Z,534.90
2018-05-12T02:56:39.269Z,584.90
2018-05-12T02:57:39.331Z,424.10
2018-05-12T02:58:39.371Z,445.40
2018-05-12T02:59:39.409Z,394.90
2018-05-12T03:00:39.553Z,410.40
2018-05-12T03:01:39.506Z,645.30
2018-05-12T03:02:39.546Z,721.20
2018-05-12T03:03:39.625Z,675.00
2018-05-12T03:04:39.656Z,389.40
2018-05-12T03:05:39.793Z,358.80
2018-05-12T03:06:39.837Z,379.20
2018-05-12T03:07:39.783Z,620.70
2018-05-12T03:08:39.824Z,530.90
2018-05-12T03:09:39.889Z,780.50
2018-05-12T03:10:39.913Z,572.90
2018-05-12T03:11:40.076Z,1232.60
2018-05-12T03:12:40.030Z,434.40
2018-05-12T03:13:40.055Z,418.30
2018-05-12T03:14:40.107Z,395.40
2018-05-12T03:15:40.164Z,372.00
2018-05-12T03:16:40.220Z,399.40
2018-05-12T03:17:40.347Z,452.30
2018-05-12T03:18:40.284Z,372.70
2018-05-12T03:19:40.350Z,601.70
2018-05-12T03:20:40.396Z,457.80
2018-05-12T03:21:40.421Z,370.60
2018-05-12T03:22:40.578Z,373.60
2018-05-12T03:23:40.515Z,506.00
2018-05-12T03:24:40.583Z,697.70
2018-05-12T03:25:40.607Z,562.10
2018-05-12T03:26:40.653Z,371.40
2018-05-12T03:27:40.803Z,382.40
2018-05-12T03:28:40.772Z,455.50
2018-05-12T03:29:40.816Z,497.70
2018-05-12T03:30:40.850Z,483.70
2018-05-12T03:31:40.902Z,536.40
2018-05-12T03:32:40.943Z,452.30
2018-05-12T03:33:41.094Z,577.40
2018-05-12T03:34:41.143Z,411.60
2018-05-12T03:35:41.090Z,397.70
2018-05-12T03:36:41.123Z,382.60
2018-05-12T03:37:41.161Z,389.10
2018-05-12T03:38:42.423Z,381.50
2018-05-12T03:39:41.357Z,394.00
2018-05-12T03:40:41.413Z,405.30
2018-05-12T03:41:41.359Z,421.80
2018-05-12T03:42:41.392Z,528.90
2018-05-12T03:43:41.450Z,632.50
2018-05-12T03:44:41.491Z,362.80
2018-05-12T03:45:41.633Z,440.40
2018-05-12T03:46:41.583Z,375.80
2018-05-12T03:47:41.647Z,383.30
2018-05-12T03:48:41.684Z,359.80
2018-05-12T03:49:41.731Z,349.40
2018-05-12T03:50:41.871Z,423.70
2018-05-12T03:51:41.916Z,409.60
2018-05-12T03:52:41.857Z,373.20
2018-05-12T03:53:41.916Z,393.50
2018-05-12T03:54:41.962Z,412.60
2018-05-12T03:55:41.992Z,394.80
2018-05-12T03:56:42.145Z,445.00
2018-05-12T03:57:42.194Z,369.70
2018-05-12T03:58:42.143Z,363.70
2018-05-12T03:59:42.182Z,425.40
2018-05-12T04:00:42.223Z,363.60
2018-05-12T04:01:42.290Z,370.30
2018-05-12T04:02:42.427Z,392.40
2018-05-12T04:03:42.373Z,344.50
2018-05-12T04:04:42.409Z,401.90
2018-05-12T04:05:42.471Z,394.70
2018-05-12T04:06:42.503Z,511.80
2018-05-12T04:07:42.666Z,405.40
2018-05-12T04:08:42.605Z,354.70
2018-05-12T04:09:42.644Z,372.90
2018-05-12T04:10:42.695Z,398.40
2018-05-12T04:11:42.740Z,372.40
2018-05-12T04:12:42.890Z,448.10
2018-05-12T04:13:42.925Z,382.50
2018-05-12T04:14:42.883Z,414.70
2018-05-12T04:15:42.919Z,457.70
2018-05-12T04:16:42.984Z,384.70
2018-05-12T04:17:43.010Z,390.90
2018-05-12T04:18:43.181Z,374.30
2018-05-12T04:19:43.215Z,454.80
2018-05-12T04:20:43.158Z,481.20
2018-05-12T04:21:43.204Z,430.70
2018-05-12T04:22:43.260Z,391.70
2018-05-12T04:23:43.306Z,383.00
2018-05-12T04:24:43.442Z,395.90
2018-05-12T04:25:43.397Z,441.00
2018-05-12T04:26:43.451Z,426.80
2018-05-12T04:27:43.478Z,371.80
2018-05-12T04:28:43.530Z,384.50
2018-05-12T04:29:43.591Z,364.70
2018-05-12T04:30:43.724Z,420.70
2018-05-12T04:31:43.662Z,418.50
2018-05-12T04:32:43.720Z,432.70
2018-05-12T04:33:43.761Z,357.30
2018-05-12T04:34:43.809Z,396.20
2018-05-12T04:35:43.958Z,390.90
2018-05-12T04:36:43.885Z,380.80
2018-05-12T04:37:43.940Z,377.30
2018-05-12T04:38:43.997Z,530.00
2018-05-12T04:39:44.036Z,367.10
2018-05-12T04:40:44.171Z,360.20
2018-05-12T04:41:44.217Z,461.80
2018-05-12T04:42:44.165Z,368.20
2018-05-12T04:43:44.209Z,368.30
2018-05-12T04:44:44.263Z,382.30
2018-05-12T04:45:44.300Z,370.10
2018-05-12T04:46:44.447Z,395.60
2018-05-12T04:47:44.570Z,354.50
2018-05-12T04:48:44.457Z,381.10
2018-05-12T04:49:44.496Z,326.50
2018-05-12T04:50:44.531Z,350.60
2018-05-12T04:51:44.599Z,384.10
2018-05-12T04:52:44.745Z,406.90
2018-05-12T04:53:44.776Z,389.10
2018-05-12T04:54:44.733Z,375.70
2018-05-12T04:55:44.761Z,379.90
2018-05-12T04:56:44.818Z,362.30
2018-05-12T04:57:44.862Z,330.10
2018-05-12T04:58:45.007Z,509.50
2018-05-12T04:59:44.971Z,356.20
2018-05-12T05:00:44.991Z,309.40
2018-05-12T05:01:45.057Z,351.40
2018-05-12T05:02:45.095Z,355.10
2018-05-12T05:03:45.263Z,404.60
2018-05-12T05:04:45.185Z,359.70
2018-05-12T05:05:45.242Z,368.20
2018-05-12T05:06:45.271Z,378.60
2018-05-12T05:07:45.315Z,338.30
2018-05-12T05:08:45.467Z,414.80
2018-05-12T05:09:45.524Z,343.50
2018-05-12T05:10:45.456Z,332.20
2018-05-12T05:11:45.502Z,347.90
2018-05-12T05:12:45.549Z,331.40
2018-05-12T05:13:45.587Z,337.80
2018-05-12T05:14:45.748Z,359.20
2018-05-12T05:15:45.799Z,520.60
2018-05-12T05:16:45.744Z,322.20
2018-05-12T05:17:45.779Z,328.90
2018-05-12T05:18:45.825Z,359.30
2018-05-12T05:19:45.872Z,348.00
2018-05-12T05:20:46.009Z,381.70
2018-05-12T05:21:46.053Z,359.20
2018-05-12T05:22:46.013Z,354.40
2018-05-12T05:23:46.052Z,329.30
2018-05-12T05:24:46.143Z,427.50
2018-05-12T05:25:46.136Z,364.20
2018-05-12T05:26:46.292Z,318.20
2018-05-12T05:27:46.333Z,472.00
2018-05-12T05:28:46.289Z,460.50
2018-05-12T05:29:46.325Z,321.50
2018-05-12T05:30:46.384Z,369.80
2018-05-12T05:31:46.423Z,407.30
2018-05-12T05:32:46.562Z,320.80
2018-05-12T05:33:46.613Z,337.40
2018-05-12T05:34:46.548Z,299.20
2018-05-12T05:35:46.600Z,370.30
2018-05-12T05:36:46.659Z,370.20
2018-05-12T05:37:46.689Z,340.40
2018-05-12T05:38:46.838Z,311.20
2018-05-12T05:39:46.891Z,327.00
2018-05-12T05:40:46.845Z,375.10
2018-05-12T05:41:46.877Z,307.10
2018-05-12T05:42:46.911Z,308.10
2018-05-12T05:43:46.965Z,353.10
2018-05-12T05:44:47.105Z,318.90
2018-05-12T05:45:47.065Z,316.80
2018-05-12T05:46:47.113Z,318.00
2018-05-12T05:47:47.150Z,311.70
2018-05-12T05:48:47.194Z,303.50
2018-05-12T05:49:47.356Z,291.00
2018-05-12T05:50:47.388Z,282.50
2018-05-12T05:51:47.329Z,377.50
2018-05-12T05:52:47.379Z,391.90
2018-05-12T05:53:47.418Z,302.40
2018-05-12T05:54:47.472Z,314.50
2018-05-12T05:55:47.604Z,309.70
2018-05-12T05:56:47.650Z,297.00
2018-05-12T05:57:47.626Z,307.30
2018-05-12T05:58:47.648Z,422.50
2018-05-12T05:59:47.706Z,306.50
2018-05-12T06:00:47.733Z,317.70
2018-05-12T06:01:47.884Z,280.00
2018-05-12T06:02:47.943Z,291.70
2018-05-12T06:03:47.870Z,376.10
2018-05-12T06:04:47.925Z,322.20
2018-05-12T06:05:47.958Z,374.20
2018-05-12T06:06:48.055Z,360.40
2018-05-12T06:07:48.150Z,301.30
2018-05-12T06:08:48.115Z,351.20
2018-05-12T06:09:48.141Z,389.50
2018-05-12T06:10:48.187Z,508.40
2018-05-12T06:11:48.245Z,313.80
2018-05-12T06:12:48.380Z,339.70
2018-05-12T06:13:48.334Z,328.60
2018-05-12T06:14:48.379Z,271.90
2018-05-12T06:15:48.422Z,379.60
2018-05-12T06:16:48.469Z,452.80
2018-05-12T06:17:48.624Z,322.10
2018-05-12T06:18:48.668Z,364.00
2018-05-12T06:19:48.595Z,290.70
2018-05-12T06:20:48.655Z,268.80
2018-05-12T06:21:48.696Z,277.50
2018-05-12T06:22:48.733Z,285.60
2018-05-12T06:23:49.030Z,291.40
2018-05-12T06:24:48.839Z,281.60
2018-05-12T06:25:48.870Z,263.20
2018-05-12T06:26:48.922Z,279.80
2018-05-12T06:27:49.005Z,298.20
2018-05-12T06:28:49.122Z,344.40
2018-05-12T06:29:49.148Z,263.70
2018-05-12T06:30:49.102Z,282.90
2018-05-12T06:31:49.148Z,292.80
2018-05-12T06:32:49.190Z,275.40
2018-05-12T06:33:49.238Z,285.10
2018-05-12T06:34:49.398Z,295.70
2018-05-12T06:35:49.436Z,274.80
2018-05-12T06:36:49.387Z,295.80
2018-05-12T06:37:49.418Z,291.00
2018-05-12T06:38:49.464Z,319.50
2018-05-12T06:39:49.524Z,319.20
2018-05-12T06:40:49.666Z,330.70
2018-05-12T06:41:49.699Z,317.20
2018-05-12T06:42:49.671Z,379.70
2018-05-12T06:43:49.698Z,286.40
2018-05-12T06:44:49.742Z,286.60
2018-05-12T06:45:49.787Z,296.60
2018-05-12T06:46:49.935Z,286.40
2018-05-12T06:47:49.879Z,375.90
2018-05-12T06:48:49.937Z,304.40
2018-05-12T06:49:49.960Z,272.30
2018-05-12T06:50:50.013Z,332.70
2018-05-12T06:51:50.162Z,299.60
2018-05-12T06:52:50.197Z,296.10
2018-05-12T06:53:50.150Z,290.70
2018-05-12T06:54:50.209Z,294.30
2018-05-12T06:55:50.231Z,360.70
2018-05-12T06:56:50.389Z,288.20
2018-05-12T06:57:50.334Z,356.90
2018-05-12T06:58:50.396Z,290.50
2018-05-12T06:59:50.434Z,336.70
2018-05-12T07:00:50.484Z,286.10
2018-05-12T07:01:50.612Z,277.30
2018-05-12T07:02:50.671Z,266.40
2018-05-12T07:03:50.623Z,294.10
2018-05-12T07:04:50.655Z,271.70
2018-05-12T07:05:50.696Z,282.40
2018-05-12T07:06:50.754Z,267.60
2018-05-12T07:07:50.894Z,336.50
2018-05-12T07:08:50.932Z,309.20
2018-05-12T07:09:50.889Z,321.80
2018-05-12T07:10:50.934Z,269.10
2018-05-12T07:11:50.973Z,295.00
2018-05-12T07:12:51.032Z,282.10
2018-05-12T07:13:51.152Z,272.60
2018-05-12T07:14:51.118Z,276.80
2018-05-12T07:15:51.168Z,322.90
2018-05-12T07:16:51.194Z,321.90
2018-05-12T07:17:51.234Z,284.40
2018-05-12T07:18:51.400Z,339.80
2018-05-12T07:19:51.447Z,296.70
2018-05-12T07:20:51.396Z,341.90
2018-05-12T07:21:51.442Z,298.40
2018-05-12T07:22:51.460Z,472.50
2018-05-12T07:23:51.512Z,341.80
2018-05-12T07:24:51.821Z,478.20
2018-05-12T07:25:51.810Z,363.50
2018-05-12T07:26:51.643Z,324.00
2018-05-12T07:27:51.699Z,307.90
2018-05-12T07:28:51.731Z,310.10
2018-05-12T07:29:51.786Z,435.30
2018-05-12T07:30:51.930Z,297.80
2018-05-12T07:31:52.139Z,481.20
2018-05-12T07:32:51.935Z,489.90
2018-05-12T07:33:51.959Z,542.00
2018-05-12T07:34:52.024Z,420.50
2018-05-12T07:35:52.074Z,381.00
2018-05-12T07:36:52.345Z,475.30
2018-05-12T07:37:52.158Z,410.40
2018-05-12T07:38:52.196Z,271.10
2018-05-12T07:39:52.236Z,388.40
2018-05-12T07:40:52.283Z,269.80
2018-05-12T07:41:52.344Z,352.80
2018-05-12T07:42:52.474Z,351.50
2018-05-12T07:43:52.431Z,429.30
2018-05-12T07:44:52.456Z,297.20
2018-05-12T07:45:52.498Z,396.70
2018-05-12T07:46:52.557Z,382.80
2018-05-12T07:47:52.796Z,282.40
2018-05-12T07:48:52.633Z,275.00
2018-05-12T07:49:52.698Z,382.50
2018-05-12T07:50:52.730Z,276.40
2018-05-12T07:51:52.778Z,365.80
2018-05-12T07:52:52.915Z,257.10
2018-05-12T07:53:52.871Z,310.10
2018-05-12T07:54:52.914Z,271.90
2018-05-12T07:55:52.958Z,281.20
2018-05-12T07:56:53.003Z,359.70
2018-05-12T07:57:53.158Z,295.40
2018-05-12T07:58:53.098Z,253.20
2018-05-12T07:59:53.149Z,274.70
2018-05-12T08:00:53.181Z,260.20
2018-05-12T08:01:53.230Z,263.00
2018-05-12T08:02:53.380Z,277.50
2018-05-12T08:03:53.425Z,274.60
2018-05-12T08:04:53.371Z,268.30
2018-05-12T08:05:53.410Z,453.60
2018-05-12T08:06:53.465Z,261.00
2018-05-12T08:07:53.510Z,267.40
2018-05-12T08:08:53.658Z,261.40
2018-05-12T08:09:53.684Z,261.90
2018-05-12T08:10:53.630Z,270.50
2018-05-12T08:11:53.684Z,275.10
2018-05-12T08:12:53.764Z,299.40
2018-05-12T08:13:53.767Z,305.30
2018-05-12T08:14:53.912Z,284.60
2018-05-12T08:15:53.969Z,267.50
2018-05-12T08:16:53.904Z,274.90
2018-05-12T08:17:53.957Z,262.30
2018-05-12T08:18:54.002Z,290.40
2018-05-12T08:19:54.060Z,286.20
2018-05-12T08:20:54.200Z,330.40
2018-05-12T08:21:54.140Z,426.50
2018-05-12T08:22:54.188Z,262.60
2018-05-12T08:23:54.224Z,257.40
2018-05-12T08:24:54.287Z,324.00
2018-05-12T08:25:54.423Z,279.50
2018-05-12T08:26:54.512Z,280.30
2018-05-12T08:27:54.416Z,351.20
2018-05-12T08:28:54.462Z,311.80
2018-05-12T08:29:54.496Z,306.60
2018-05-12T08:30:54.555Z,295.40
2018-05-12T08:31:54.704Z,288.90
2018-05-12T08:32:54.644Z,293.00
2018-05-12T08:33:54.688Z,294.80
2018-05-12T08:34:54.733Z,289.50
2018-05-12T08:35:54.774Z,325.00
2018-05-12T08:36:54.924Z,301.30
2018-05-12T08:37:54.959Z,302.90
2018-05-12T08:38:54.925Z,321.80
2018-05-12T08:39:54.973Z,331.30
2018-05-12T08:40:55.002Z,371.80
2018-05-12T08:41:55.059Z,322.90
2018-05-12T08:42:55.212Z,344.70
2018-05-12T08:43:55.232Z,387.10
2018-05-12T08:44:55.183Z,305.40
2018-05-12T08:45:55.248Z,310.70
2018-05-12T08:46:55.277Z,348.30
2018-05-12T08:47:55.320Z,529.50
2018-05-12T08:48:55.469Z,355.10
2018-05-12T08:49:55.524Z,316.40
2018-05-12T08:50:55.455Z,335.30
2018-05-12T08:51:55.499Z,364.60
2018-05-12T08:52:55.538Z,362.70
2018-05-12T08:53:55.608Z,393.60
2018-05-12T08:54:55.728Z,447.50
2018-05-12T08:55:55.793Z,405.50
2018-05-12T08:56:55.733Z,446.80
2018-05-12T08:57:55.773Z,349.30
2018-05-12T08:58:55.817Z,378.50
2018-05-12T08:59:55.859Z,387.60
2018-05-12T09:00:56.020Z,350.70
2018-05-12T09:01:55.963Z,347.80
2018-05-12T09:02:56.002Z,313.40
2018-05-12T09:03:56.034Z,376.10
2018-05-12T09:04:56.085Z,367.00
2018-05-12T09:05:56.240Z,371.90
2018-05-12T09:06:56.189Z,360.60
2018-05-12T09:07:56.233Z,341.30
2018-05-12T09:08:56.272Z,371.60
2018-05-12T09:09:56.332Z,394.80
2018-05-12T09:10:56.461Z,352.70
2018-05-12T09:11:56.517Z,430.50
2018-05-12T09:12:56.453Z,373.80
2018-05-12T09:13:56.502Z,434.70
2018-05-12T09:14:56.545Z,439.90
2018-05-12T09:15:56.582Z,365.10
2018-05-12T09:16:56.744Z,375.40
2018-05-12T09:17:56.781Z,328.20
2018-05-12T09:18:56.723Z,377.30
2018-05-12T09:19:56.788Z,359.70
2018-05-12T09:20:56.810Z,308.20
2018-05-12T09:21:56.853Z,328.20
2018-05-12T09:22:56.999Z,314.00
2018-05-12T09:23:57.054Z,323.60
2018-05-12T09:24:56.995Z,296.80
2018-05-12T09:25:57.037Z,266.40
2018-05-12T09:26:57.073Z,339.10
2018-05-12T09:27:57.131Z,261.20
2018-05-12T09:28:57.263Z,350.00
2018-05-12T09:29:57.314Z,407.90
2018-05-12T09:30:57.271Z,291.80
2018-05-12T09:31:57.318Z,295.50
2018-05-12T09:32:57.363Z,241.10
2018-05-12T09:33:57.407Z,268.90
2018-05-12T09:34:57.554Z,302.60
2018-05-12T09:35:57.593Z,265.30
2018-05-12T09:36:57.543Z,272.50
2018-05-12T09:37:57.580Z,257.10
2018-05-12T09:38:57.616Z,233.00
2018-05-12T09:39:57.681Z,263.20
2018-05-12T09:40:57.818Z,241.70
2018-05-12T09:41:57.851Z,299.30
2018-05-12T09:42:57.816Z,290.40
2018-05-12T09:43:57.854Z,240.30
2018-05-12T09:44:57.894Z,253.20
2018-05-12T09:45:57.938Z,260.30
2018-05-12T09:46:58.091Z,260.30
2018-05-12T09:47:58.039Z,239.30
2018-05-12T09:48:58.083Z,228.60
2018-05-12T09:49:58.128Z,259.20
2018-05-12T09:50:58.161Z,233.80
2018-05-12T09:51:58.317Z,270.30
2018-05-12T09:52:58.272Z,250.20
2018-05-12T09:53:58.311Z,206.40
2018-05-12T09:54:58.345Z,285.80
2018-05-12T09:55:58.403Z,248.60
2018-05-12T09:56:58.546Z,389.80
2018-05-12T09:57:58.483Z,414.40
2018-05-12T09:58:58.540Z,224.90
2018-05-12T09:59:58.600Z,230.00
2018-05-12T10:00:58.631Z,208.30
2018-05-12T10:01:58.772Z,216.80
2018-05-12T10:02:58.823Z,215.90
2018-05-12T10:03:58.765Z,218.10
2018-05-12T10:04:58.803Z,293.10
2018-05-12T10:05:58.848Z,444.80
2018-05-12T10:06:58.905Z,319.50
2018-05-12T10:07:59.048Z,299.00
2018-05-12T10:08:58.988Z,205.00
2018-05-12T10:09:59.043Z,252.60
2018-05-12T10:10:59.084Z,436.90
2018-05-12T10:11:59.143Z,215.40
2018-05-12T10:12:59.177Z,245.10
2018-05-12T10:13:59.328Z,257.30
2018-05-12T10:14:59.370Z,213.90
2018-05-12T10:15:59.308Z,182.70
2018-05-12T10:16:59.372Z,192.90
2018-05-12T10:17:59.399Z,256.90
2018-05-12T10:18:59.465Z,182.40
2018-05-12T10:19:59.499Z,179.20
2018-05-12T10:20:59.659Z,197.70
2018-05-12T10:21:59.596Z,281.20
2018-05-12T10:22:59.647Z,304.00
2018-05-12T10:23:59.700Z,251.00
2018-05-12T10:24:59.734Z,188.40
2018-05-12T10:25:59.880Z,129.20
2018-05-12T10:26:59.936Z,179.50
2018-05-12T10:27:59.865Z,266.30
2018-05-12T10:28:59.921Z,182.10
2018-05-12T10:29:59.970Z,238.00
2018-05-12T10:31:00.025Z,240.40
2018-05-12T10:32:00.158Z,177.30
2018-05-12T10:33:00.119Z,216.90
2018-05-12T10:34:00.149Z,282.20
2018-05-12T10:35:00.211Z,275.70
2018-05-12T10:36:00.249Z,334.50
2018-05-12T10:37:00.303Z,332.10
2018-05-12T10:38:00.462Z,326.60
2018-05-12T10:39:00.523Z,352.30
2018-05-12T10:40:00.451Z,364.70
2018-05-12T10:41:00.498Z,343.00
2018-05-12T10:42:00.550Z,269.30
2018-05-12T10:43:00.608Z,276.90
2018-05-12T10:44:00.769Z,258.00
2018-05-12T10:45:00.801Z,278.50
2018-05-12T10:46:00.751Z,430.30
2018-05-12T10:47:00.805Z,316.70
2018-05-12T10:48:00.864Z,308.00
2018-05-12T10:49:00.906Z,314.30
2018-05-12T10:50:01.068Z,334.50
2018-05-12T10:51:01.118Z,372.50
2018-05-12T10:52:01.059Z,312.00
2018-05-12T10:53:01.121Z,352.80
2018-05-12T10:54:01.177Z,342.00
2018-05-12T10:55:01.218Z,401.20
2018-05-12T10:56:01.373Z,614.50
2018-05-12T10:57:01.334Z,338.10
2018-05-12T10:58:01.361Z,341.30
2018-05-12T10:59:01.433Z,306.10
2018-05-12T11:00:01.475Z,376.30
2018-05-12T11:01:01.634Z,345.10
2018-05-12T11:02:01.702Z,400.30
2018-05-12T11:03:01.614Z,296.20
2018-05-12T11:04:01.682Z,272.90
2018-05-12T11:05:01.715Z,423.00
2018-05-12T11:06:01.869Z,254.00
2018-05-12T11:07:01.924Z,318.50
2018-05-12T11:08:01.875Z,387.70
2018-05-12T11:09:01.928Z,259.00
2018-05-12T11:10:01.962Z,297.30
2018-05-12T11:11:02.035Z,387.90
2018-05-12T11:12:02.205Z,289.60
2018-05-12T11:13:02.124Z,250.10
2018-05-12T11:14:02.171Z,320.80
2018-05-12T11:15:02.221Z,285.70
2018-05-12T11:16:02.297Z,275.90
2018-05-12T11:17:02.414Z,375.30
2018-05-12T11:18:02.370Z,270.80
2018-05-12T11:19:02.410Z,274.90
2018-05-12T11:20:02.461Z,363.70
2018-05-12T11:21:02.512Z,413.60
2018-05-12T11:22:02.677Z,312.30
2018-05-12T11:23:02.617Z,292.20
2018-05-12T11:24:02.664Z,386.20
2018-05-12T11:25:02.711Z,209.50
2018-05-12T11:26:02.760Z,306.50
2018-05-12T11:27:02.921Z,270.10
2018-05-12T11:28:02.870Z,249.40
2018-05-12T11:29:02.932Z,297.00
2018-05-12T11:30:02.966Z,216.90
2018-05-12T11:31:03.023Z,287.40
2018-05-12T11:32:03.160Z,212.40
2018-05-12T11:33:03.111Z,247.50
2018-05-12T11:34:03.166Z,181.10
2018-05-12T11:35:03.204Z,202.90
2018-05-12T11:36:03.270Z,387.30
2018-05-12T11:37:03.412Z,182.60
2018-05-12T11:38:03.375Z,299.20
2018-05-12T11:39:03.398Z,239.20
2018-05-12T11:40:03.468Z,267.00
2018-05-12T11:41:03.526Z,221.90
2018-05-12T11:42:03.665Z,193.50
2018-05-12T11:43:03.704Z,219.20
2018-05-12T11:44:03.645Z,212.40
2018-05-12T11:45:03.706Z,340.20
2018-05-12T11:46:03.749Z,235.00
2018-05-12T11:47:03.801Z,203.60
2018-05-12T11:48:03.949Z,408.70
2018-05-12T11:49:03.992Z,208.30
2018-05-12T11:50:03.963Z,289.20
2018-05-12T11:51:04.013Z,253.30
2018-05-12T11:52:04.052Z,329.50
2018-05-12T11:53:04.097Z,301.00
2018-05-12T11:54:04.331Z,247.20
2018-05-12T11:55:04.202Z,283.50
2018-05-12T11:56:04.265Z,285.50
2018-05-12T11:57:04.305Z,472.00
2018-05-12T11:58:04.345Z,309.80
2018-05-12T11:59:04.497Z,490.60
2018-05-12T12:00:04.737Z,534.60
2018-05-12T12:01:04.499Z,385.00
2018-05-12T12:02:04.535Z,348.50
2018-05-12T12:03:04.600Z,467.50
2018-05-12T12:04:04.656Z,421.40
2018-05-12T12:05:04.805Z,362.10
2018-05-12T12:06:04.836Z,305.70
2018-05-12T12:07:04.787Z,337.90
2018-05-12T12:08:04.846Z,302.60
2018-05-12T12:09:04.901Z,422.20
2018-05-12T12:10:04.958Z,266.50
2018-05-12T12:11:05.093Z,309.10
2018-05-12T12:12:05.163Z,342.20
2018-05-12T12:13:05.093Z,245.40
2018-05-12T12:14:05.158Z,199.10
2018-05-12T12:15:05.199Z,258.00
2018-05-12T12:16:05.249Z,258.30
2018-05-12T12:17:05.404Z,195.90
2018-05-12T12:18:05.458Z,270.50
2018-05-12T12:19:05.425Z,158.10
2018-05-12T12:20:05.460Z,135.30
2018-05-12T12:21:05.521Z,288.00
2018-05-12T12:22:05.581Z,138.60
2018-05-12T12:23:05.721Z,133.10
2018-05-12T12:24:05.789Z,106.60
2018-05-12T12:25:05.741Z,157.10
2018-05-12T12:26:05.795Z,180.90
2018-05-12T12:27:05.837Z,86.80
2018-05-12T12:28:05.905Z,104.80
2018-05-12T12:29:06.073Z,66.50